createdAt,value
2024-03-09T00:01:51.907Z,84.80
2024-03-09T00:04:23.534Z,84.60
2024-03-09T00:06:52.879Z,84.60
2024-03-09T00:09:23.604Z,84.40
2024-03-09T00:11:52.982Z,84.40
2024-03-09T00:14:22.289Z,84.30
2024-03-09T00:16:51.565Z,84.30
2024-03-09T00:19:22.227Z,84.20
2024-03-09T00:21:51.598Z,84.10
2024-03-09T00:24:22.260Z,83.90
2024-03-09T00:26:52.136Z,83.80
2024-03-09T00:29:22.290Z,83.60
2024-03-09T00:31:53.432Z,83.30
2024-03-09T00:34:24.393Z,83.20
2024-03-09T00:36:54.580Z,83.00
2024-03-09T00:39:25.325Z,82.90
2024-03-09T00:41:54.634Z,82.70
2024-03-09T00:44:23.832Z,82.80
2024-03-09T00:46:53.136Z,82.80
2024-03-09T00:49:22.424Z,82.80
2024-03-09T00:51:51.653Z,82.70
2024-03-09T00:54:20.922Z,82.50
2024-03-09T00:56:52.286Z,82.40
2024-03-09T00:59:21.720Z,82.20
2024-03-09T01:01:51.106Z,82.30
2024-03-09T01:04:20.536Z,82.20
2024-03-09T01:06:49.756Z,82.10
2024-03-09T01:09:19.000Z,82.00
2024-03-09T01:11:50.123Z,82.00
2024-03-09T01:14:20.953Z,81.90
2024-03-09T01:16:50.171Z,81.80
2024-03-09T01:19:20.912Z,81.70
2024-03-09T01:21:50.161Z,81.60
2024-03-09T01:24:21.382Z,81.60
2024-03-09T01:26:50.409Z,81.60
2024-03-09T01:29:22.078Z,81.60
2024-03-09T01:31:53.806Z,81.60
2024-03-09T01:34:23.204Z,81.70
2024-03-09T01:36:52.519Z,81.90
2024-03-09T01:39:23.158Z,82.00
2024-03-09T01:41:52.659Z,82.00
2024-03-09T01:44:23.364Z,82.10
2024-03-09T01:46:54.171Z,82.10
2024-03-09T01:49:23.711Z,82.00
2024-03-09T01:51:53.578Z,82.00
2024-03-09T01:54:25.449Z,81.80
2024-03-09T01:56:57.165Z,81.70
2024-03-09T01:59:30.875Z,81.80
2024-03-09T02:02:03.034Z,81.90
2024-03-09T02:04:34.851Z,81.90
2024-03-09T02:07:04.155Z,81.80
2024-03-09T02:09:35.489Z,81.80
2024-03-09T02:12:07.881Z,81.70
2024-03-09T02:14:38.891Z,81.80
2024-03-09T02:17:10.230Z,81.80
2024-03-09T02:19:41.087Z,81.80
2024-03-09T02:22:13.057Z,81.70
2024-03-09T02:24:43.929Z,81.80
2024-03-09T02:27:14.823Z,82.00
2024-03-09T02:29:44.106Z,82.00
2024-03-09T02:32:13.508Z,82.00
2024-03-09T02:34:42.789Z,82.00
2024-03-09T02:37:12.128Z,82.10
2024-03-09T02:39:42.714Z,82.10
2024-03-09T02:42:12.296Z,82.20
2024-03-09T02:44:43.499Z,82.30
2024-03-09T02:47:12.638Z,82.40
2024-03-09T02:49:41.888Z,82.60
2024-03-09T02:52:11.443Z,82.50
2024-03-09T02:54:40.632Z,82.80
2024-03-09T02:57:09.989Z,83.00
2024-03-09T02:59:39.707Z,83.00
2024-03-09T03:02:36.019Z,83.20
2024-03-09T03:05:04.700Z,83.30
2024-03-09T03:07:34.155Z,83.50
2024-03-09T03:10:03.634Z,83.90
2024-03-09T03:12:34.007Z,84.00
2024-03-09T03:15:03.467Z,84.20
2024-03-09T03:17:34.154Z,84.60
2024-03-09T03:20:06.332Z,85.30
2024-03-09T03:22:35.795Z,85.60
2024-03-09T03:25:06.268Z,85.90
2024-03-09T03:27:35.587Z,86.20
2024-03-09T03:30:05.161Z,86.20
2024-03-09T03:32:35.823Z,86.50
2024-03-09T03:35:05.924Z,86.50
2024-03-09T03:37:36.006Z,86.60
2024-03-09T03:40:08.313Z,86.70
2024-03-09T03:42:37.859Z,87.10
2024-03-09T03:45:08.423Z,87.30
2024-03-09T03:47:39.984Z,87.50
2024-03-09T03:50:10.506Z,87.40
2024-03-09T03:52:40.819Z,87.60
2024-03-09T03:55:13.652Z,87.70
2024-03-09T03:57:44.246Z,88.00
2024-03-09T04:00:14.565Z,88.10
2024-03-09T04:02:45.665Z,88.40
2024-03-09T04:05:15.028Z,88.70
2024-03-09T04:07:44.416Z,88.70
2024-03-09T04:10:17.217Z,88.90
2024-03-09T04:12:46.985Z,88.90
2024-03-09T04:15:16.775Z,88.90
2024-03-09T04:17:47.570Z,89.00
2024-03-09T04:20:18.330Z,89.00
2024-03-09T04:22:51.821Z,89.10
2024-03-09T04:25:21.260Z,89.20
2024-03-09T04:27:52.105Z,89.40
2024-03-09T04:30:23.599Z,89.40
2024-03-09T04:32:56.490Z,89.60
2024-03-09T04:35:26.168Z,89.60
2024-03-09T04:37:55.580Z,89.80
2024-03-09T04:40:25.036Z,89.70
2024-03-09T04:42:55.141Z,89.90
2024-03-09T04:45:26.279Z,90.00
2024-03-09T04:47:57.252Z,90.00
2024-03-09T04:50:26.428Z,90.00
2024-03-09T04:52:55.706Z,90.00
2024-03-09T04:55:29.250Z,90.10
2024-03-09T04:57:58.985Z,90.00
2024-03-09T05:00:30.925Z,90.00
2024-03-09T05:03:01.562Z,90.00
2024-03-09T05:05:31.792Z,90.00
2024-03-09T05:08:01.169Z,90.10
2024-03-09T05:10:31.693Z,90.10
2024-03-09T05:13:01.360Z,90.10
2024-03-09T05:15:32.174Z,90.20
2024-03-09T05:18:05.291Z,90.20
2024-03-09T05:20:34.721Z,90.30
2024-03-09T05:23:05.917Z,90.20
2024-03-09T05:25:35.425Z,90.20
2024-03-09T05:28:05.001Z,90.20
2024-03-09T05:30:34.347Z,90.20
2024-03-09T05:33:08.478Z,90.20
2024-03-09T05:35:38.052Z,90.20
2024-03-09T05:38:09.864Z,90.20
2024-03-09T05:40:40.028Z,90.20
2024-03-09T05:43:10.925Z,90.20
2024-03-09T05:45:41.177Z,90.10
2024-03-09T05:48:12.578Z,90.20
2024-03-09T05:50:42.234Z,90.30
2024-03-09T05:53:12.539Z,90.30
2024-03-09T05:55:45.272Z,90.20
2024-03-09T05:58:14.765Z,90.20
2024-03-09T06:00:45.121Z,90.20
2024-03-09T06:03:16.486Z,90.20
2024-03-09T06:05:46.958Z,90.20
2024-03-09T06:08:17.372Z,90.30
2024-03-09T06:10:58.509Z,90.20
2024-03-09T06:13:31.590Z,90.20
2024-03-09T06:16:01.719Z,90.20
2024-03-09T06:18:32.465Z,90.20
2024-03-09T06:21:01.778Z,90.20
2024-03-09T06:23:31.001Z,90.30
2024-03-09T06:26:00.312Z,90.30
2024-03-09T06:28:29.611Z,90.20
2024-03-09T06:30:59.909Z,90.20
2024-03-09T06:33:29.406Z,90.30
2024-03-09T06:36:06.120Z,90.30
2024-03-09T06:38:36.571Z,90.30
2024-03-09T06:41:06.412Z,90.40
2024-03-09T06:43:37.195Z,90.40
2024-03-09T06:46:09.888Z,90.40
2024-03-09T06:48:39.194Z,90.40
2024-03-09T06:51:09.826Z,90.50
2024-03-09T06:53:39.080Z,90.40
2024-03-09T06:56:09.110Z,90.30
2024-03-09T06:58:39.071Z,90.70
2024-03-09T07:01:08.370Z,90.30
2024-03-09T07:03:37.596Z,90.30
2024-03-09T07:06:07.181Z,90.30
2024-03-09T07:08:36.826Z,90.30
2024-03-09T07:11:06.488Z,90.30
2024-03-09T07:13:35.844Z,90.30
2024-03-09T07:16:06.276Z,90.30
2024-03-09T07:18:38.089Z,90.20
2024-03-09T07:21:07.636Z,90.20
2024-03-09T07:23:38.284Z,90.10
2024-03-09T07:26:07.618Z,90.10
2024-03-09T07:28:37.423Z,90.20
2024-03-09T07:31:07.028Z,90.10
2024-03-09T07:33:36.565Z,90.10
2024-03-09T07:36:06.439Z,90.20
2024-03-09T07:38:35.714Z,90.20
2024-03-09T07:41:08.575Z,90.20
2024-03-09T07:43:38.125Z,90.20
2024-03-09T07:46:08.283Z,90.20
2024-03-09T07:48:38.396Z,90.10
2024-03-09T07:51:09.909Z,90.20
2024-03-09T07:53:39.718Z,90.10
2024-03-09T07:56:13.572Z,89.90
2024-03-09T07:58:43.222Z,89.90
2024-03-09T08:01:12.629Z,89.80
2024-03-09T08:03:41.999Z,89.90
2024-03-09T08:06:11.848Z,90.00
2024-03-09T08:08:41.134Z,89.80
2024-03-09T08:11:11.846Z,89.90
2024-03-09T08:13:42.350Z,89.80
2024-03-09T08:16:12.169Z,89.90
2024-03-09T08:18:41.567Z,89.80
2024-03-09T08:21:10.922Z,89.50
2024-03-09T08:23:43.937Z,89.50
2024-03-09T08:26:14.691Z,89.40
2024-03-09T08:28:44.061Z,89.40
2024-03-09T08:31:14.943Z,89.50
2024-03-09T08:33:44.766Z,89.50
2024-03-09T08:36:14.150Z,89.60
2024-03-09T08:38:43.402Z,89.60
2024-03-09T08:41:14.460Z,89.50
2024-03-09T08:43:42.597Z,89.80
2024-03-09T08:46:11.929Z,89.70
2024-03-09T08:48:41.231Z,89.50
2024-03-09T08:51:10.565Z,89.60
2024-03-09T08:53:42.343Z,90.20
2024-03-09T08:56:11.662Z,89.70
2024-03-09T08:58:42.816Z,89.90
2024-03-09T09:01:12.557Z,89.90
2024-03-09T09:03:41.882Z,89.80
2024-03-09T09:06:11.519Z,89.80
2024-03-09T09:08:41.560Z,89.80
2024-03-09T09:11:14.704Z,90.00
2024-03-09T09:13:45.710Z,90.00
2024-03-09T09:16:17.094Z,89.90
2024-03-09T09:18:46.405Z,89.90
2024-03-09T09:21:16.196Z,89.90
2024-03-09T09:23:46.398Z,89.90
2024-03-09T09:26:15.760Z,89.80
2024-03-09T09:28:46.430Z,89.70
2024-03-09T09:31:15.674Z,90.20
2024-03-09T09:33:45.006Z,89.70
2024-03-09T09:36:14.550Z,89.50
2024-03-09T09:38:46.468Z,89.60
2024-03-09T09:41:17.502Z,89.60
2024-03-09T09:43:50.007Z,89.60
2024-03-09T09:46:19.575Z,89.50
2024-03-09T09:48:52.346Z,89.40
2024-03-09T09:51:24.324Z,89.30
2024-03-09T09:53:54.451Z,89.30
2024-03-09T09:56:23.864Z,89.20
2024-03-09T09:58:54.612Z,89.20
2024-03-09T10:01:24.947Z,89.20
2024-03-09T10:03:54.723Z,89.30
2024-03-09T10:06:25.824Z,89.50
2024-03-09T10:08:56.109Z,89.50
2024-03-09T10:11:26.145Z,89.50
2024-03-09T10:14:01.561Z,89.40
2024-03-09T10:16:32.457Z,89.30
2024-03-09T10:19:02.090Z,89.50
2024-03-09T10:21:37.263Z,89.50
2024-03-09T10:24:08.758Z,89.50
2024-03-09T10:26:38.045Z,89.50
2024-03-09T10:29:09.607Z,89.60
2024-03-09T10:31:44.104Z,89.40
2024-03-09T10:34:13.507Z,89.30
2024-03-09T10:36:43.031Z,89.50
2024-03-09T10:39:20.979Z,89.60
2024-03-09T10:41:52.049Z,89.60
2024-03-09T10:44:24.713Z,89.50
2024-03-09T10:46:59.007Z,89.50
2024-03-09T10:49:31.618Z,89.60
2024-03-09T10:52:05.149Z,89.60
2024-03-09T10:54:45.252Z,89.60
2024-03-09T10:57:23.125Z,89.90
2024-03-09T10:59:55.510Z,89.90
2024-03-09T11:02:26.424Z,90.00
2024-03-09T11:04:59.875Z,89.90
2024-03-09T11:07:29.295Z,89.90
2024-03-09T11:09:59.749Z,90.40
2024-03-09T11:12:29.258Z,89.90
2024-03-09T11:15:00.746Z,90.00
2024-03-09T11:17:36.233Z,89.90
2024-03-09T11:20:07.521Z,90.00
2024-03-09T11:22:42.894Z,90.00
2024-03-09T11:25:13.314Z,89.90
2024-03-09T11:27:43.642Z,89.80
2024-03-09T11:30:18.204Z,89.80
2024-03-09T11:32:49.557Z,89.80
2024-03-09T11:35:29.606Z,90.00
2024-03-09T11:38:01.887Z,90.00
2024-03-09T11:40:31.278Z,90.00
2024-03-09T11:43:01.807Z,90.10
2024-03-09T11:45:32.657Z,90.10
2024-03-09T11:48:04.086Z,90.20
2024-03-09T11:50:33.467Z,90.30
2024-03-09T11:53:06.286Z,90.30
2024-03-09T11:55:35.808Z,90.40
2024-03-09T11:58:05.414Z,90.40
2024-03-09T12:00:36.761Z,90.50
2024-03-09T12:03:15.554Z,90.40
2024-03-09T12:05:44.980Z,90.50
2024-03-09T12:08:15.109Z,90.60
2024-03-09T12:10:46.944Z,90.70
2024-03-09T12:13:16.492Z,90.80
2024-03-09T12:15:47.672Z,90.80
2024-03-09T12:18:16.857Z,90.90
2024-03-09T12:20:49.842Z,90.90
2024-03-09T12:23:20.994Z,90.90
2024-03-09T12:25:50.467Z,90.90
2024-03-09T12:28:19.934Z,91.00
2024-03-09T12:30:53.032Z,91.00
2024-03-09T12:33:22.886Z,91.10
2024-03-09T12:35:59.104Z,91.20
2024-03-09T12:38:31.573Z,91.20
2024-03-09T12:41:03.069Z,91.30
2024-03-09T12:43:32.417Z,91.20
2024-03-09T12:46:07.367Z,91.20
2024-03-09T12:48:38.059Z,91.30
2024-03-09T12:51:07.488Z,91.30
2024-03-09T12:53:36.771Z,91.30
2024-03-09T12:56:07.100Z,91.30
2024-03-09T12:58:36.479Z,91.30
2024-03-09T13:01:07.259Z,91.30
2024-03-09T13:03:37.129Z,91.30
2024-03-09T13:06:08.779Z,91.40
2024-03-09T13:08:43.222Z,91.40
2024-03-09T13:11:12.644Z,91.50
2024-03-09T13:13:43.121Z,91.50
2024-03-09T13:16:13.989Z,91.50
2024-03-09T13:18:43.461Z,91.60
2024-03-09T13:21:12.929Z,91.70
2024-03-09T13:23:42.231Z,91.70
2024-03-09T13:26:14.535Z,91.70
2024-03-09T13:28:45.727Z,91.70
2024-03-09T13:31:17.511Z,91.80
2024-03-09T13:33:49.291Z,91.80
2024-03-09T13:36:20.127Z,91.70
2024-03-09T13:38:49.437Z,91.70
2024-03-09T13:41:18.797Z,91.70
2024-03-09T13:43:48.931Z,91.70
2024-03-09T13:46:21.153Z,91.70
2024-03-09T13:48:52.236Z,91.70
2024-03-09T13:51:21.599Z,91.60
2024-03-09T13:53:50.861Z,91.60
2024-03-09T13:56:20.297Z,91.60
2024-03-09T13:58:50.840Z,91.60
2024-03-09T14:01:21.947Z,91.60
2024-03-09T14:03:53.217Z,91.70
2024-03-09T14:06:22.830Z,91.70
2024-03-09T14:08:52.388Z,91.70
2024-03-09T14:11:21.741Z,91.70
2024-03-09T14:13:51.095Z,91.70
2024-03-09T14:16:25.450Z,91.60
2024-03-09T14:18:57.217Z,91.70
2024-03-09T14:21:26.672Z,91.80
2024-03-09T14:23:56.581Z,91.70
2024-03-09T14:26:26.633Z,91.70
2024-03-09T14:28:59.709Z,91.70
2024-03-09T14:31:32.520Z,91.70
2024-03-09T14:34:02.626Z,91.70
2024-03-09T14:36:33.417Z,91.70
2024-03-09T14:39:03.128Z,91.70
2024-03-09T14:41:32.736Z,91.70
2024-03-09T14:44:02.090Z,91.80
2024-03-09T14:46:32.929Z,91.80
2024-03-09T14:49:02.192Z,91.80
2024-03-09T14:51:32.462Z,91.80
2024-03-09T14:54:02.563Z,91.90
2024-03-09T14:56:32.046Z,91.90
2024-03-09T14:59:08.548Z,92.00
2024-03-09T15:01:39.476Z,91.90
2024-03-09T15:04:09.207Z,91.90
2024-03-09T15:06:41.379Z,91.90
2024-03-09T15:09:21.907Z,91.90
2024-03-09T15:11:53.961Z,92.00
2024-03-09T15:14:24.277Z,92.00
2024-03-09T15:16:56.269Z,92.00
2024-03-09T15:19:26.382Z,92.00
2024-03-09T15:21:57.743Z,92.00
2024-03-09T15:24:28.065Z,92.00
2024-03-09T15:26:57.611Z,92.10
2024-03-09T15:29:26.918Z,92.10
2024-03-09T15:32:00.584Z,92.10
2024-03-09T15:34:29.961Z,92.10
2024-03-09T15:36:59.289Z,92.10
2024-03-09T15:39:28.598Z,92.10
2024-03-09T15:41:59.677Z,92.20
2024-03-09T15:44:29.072Z,92.30
2024-03-09T15:46:59.794Z,92.30
2024-03-09T15:49:29.187Z,92.40
2024-03-09T15:52:00.819Z,92.40
2024-03-09T15:54:30.928Z,92.40
2024-03-09T15:57:00.202Z,92.40
2024-03-09T15:59:29.401Z,92.40
2024-03-09T16:02:00.134Z,92.40
2024-03-09T16:04:29.871Z,92.40
2024-03-09T16:07:01.148Z,92.40
2024-03-09T16:09:31.384Z,92.50
2024-03-09T16:12:00.743Z,92.40
2024-03-09T16:14:30.595Z,92.40
2024-03-09T16:17:01.295Z,92.40
2024-03-09T16:19:34.297Z,92.40
2024-03-09T16:22:04.580Z,92.40
2024-03-09T16:24:33.862Z,92.30
2024-03-09T16:27:08.971Z,92.40
2024-03-09T16:29:38.285Z,92.50
2024-03-09T16:32:15.961Z,92.50
2024-03-09T16:34:45.437Z,92.50
2024-03-09T16:37:16.506Z,92.60
2024-03-09T16:39:45.796Z,92.60
2024-03-09T16:42:17.016Z,92.50
2024-03-09T16:44:46.083Z,92.60
2024-03-09T16:47:20.105Z,92.50
2024-03-09T16:49:50.229Z,92.50
2024-03-09T16:52:21.894Z,92.60
2024-03-09T16:54:51.868Z,92.60
2024-03-09T16:57:22.975Z,92.60
2024-03-09T16:59:53.672Z,92.60
2024-03-09T17:02:24.436Z,92.60
2024-03-09T17:04:56.258Z,92.70
2024-03-09T17:07:25.593Z,92.70
2024-03-09T17:09:54.997Z,92.70
2024-03-09T17:12:24.349Z,92.70
2024-03-09T17:14:56.522Z,92.70
2024-03-09T17:17:27.446Z,92.70
2024-03-09T17:19:56.975Z,92.70
2024-03-09T17:22:28.532Z,92.70
2024-03-09T17:24:59.765Z,92.70
2024-03-09T17:27:30.603Z,92.60
2024-03-09T17:29:59.849Z,92.70
2024-03-09T17:32:33.509Z,92.70
2024-03-09T17:35:03.420Z,92.70
2024-03-09T17:37:32.730Z,92.80
2024-03-09T17:40:02.000Z,92.80
2024-03-09T17:42:31.245Z,92.80
2024-03-09T17:45:00.543Z,92.80
2024-03-09T17:47:31.339Z,92.90
2024-03-09T17:50:00.660Z,92.90
2024-03-09T17:52:30.049Z,92.80
2024-03-09T17:54:59.336Z,92.80
2024-03-09T17:57:30.007Z,92.80
2024-03-09T17:59:59.268Z,92.80
2024-03-09T18:02:29.140Z,92.90
2024-03-09T18:04:59.929Z,92.80
2024-03-09T18:07:29.250Z,92.90
2024-03-09T18:09:59.956Z,92.90
2024-03-09T18:12:31.144Z,92.90
2024-03-09T18:15:10.476Z,92.80
2024-03-09T18:17:39.862Z,92.80
2024-03-09T18:20:11.959Z,92.70
2024-03-09T18:22:42.348Z,92.70
2024-03-09T18:25:11.650Z,92.70
2024-03-09T18:27:42.269Z,92.70
2024-03-09T18:30:17.784Z,92.70
2024-03-09T18:32:47.762Z,92.70
2024-03-09T18:35:23.713Z,92.70
2024-03-09T18:37:54.965Z,92.80
2024-03-09T18:40:25.118Z,92.70
2024-03-09T18:42:56.076Z,92.80
2024-03-09T18:45:29.506Z,92.80
2024-03-09T18:47:59.048Z,92.80
2024-03-09T18:50:30.020Z,92.80
2024-03-09T18:53:00.867Z,92.90
2024-03-09T18:55:32.195Z,92.90
2024-03-09T18:58:06.233Z,92.90
2024-03-09T19:00:35.840Z,92.90
2024-03-09T19:03:08.022Z,92.90
2024-03-09T19:05:39.441Z,93.00
2024-03-09T19:08:10.663Z,92.90
2024-03-09T19:10:40.035Z,93.00
2024-03-09T19:13:13.312Z,93.00
2024-03-09T19:15:43.396Z,93.00
2024-03-09T19:18:14.207Z,93.10
2024-03-09T19:20:46.983Z,93.20
2024-03-09T19:23:16.488Z,93.20
2024-03-09T19:25:51.043Z,93.20
2024-03-09T19:28:24.109Z,93.30
2024-03-09T19:30:54.282Z,93.30
2024-03-09T19:33:23.864Z,93.70
2024-03-09T19:35:58.204Z,93.40
2024-03-09T19:38:29.397Z,93.40
2024-03-09T19:40:58.676Z,93.40
2024-03-09T19:43:28.033Z,93.40
2024-03-09T19:45:57.929Z,93.40
2024-03-09T19:48:27.365Z,93.50
2024-03-09T19:50:59.990Z,93.60
2024-03-09T19:53:29.352Z,93.70
2024-03-09T19:56:00.286Z,93.60
2024-03-09T19:58:29.524Z,93.60
2024-03-09T20:00:58.871Z,93.70
2024-03-09T20:03:29.136Z,93.70
2024-03-09T20:06:00.484Z,93.60
2024-03-09T20:08:29.709Z,93.60
2024-03-09T20:11:03.272Z,93.70
2024-03-09T20:13:33.981Z,93.70
2024-03-09T20:16:03.369Z,93.70
2024-03-09T20:18:33.152Z,93.70
2024-03-09T20:21:05.697Z,93.70
2024-03-09T20:23:35.168Z,93.60
2024-03-09T20:26:04.908Z,93.60
2024-03-09T20:28:34.142Z,93.50
2024-03-09T20:31:03.432Z,93.40
2024-03-09T20:33:32.707Z,93.40
2024-03-09T20:36:03.368Z,93.50
2024-03-09T20:38:33.294Z,93.50
2024-03-09T20:41:04.456Z,93.40
2024-03-09T20:43:35.785Z,93.40
2024-03-09T20:46:05.042Z,93.40
2024-03-09T20:48:34.306Z,93.40
2024-03-09T20:51:05.290Z,93.30
2024-03-09T20:53:48.041Z,93.20
2024-03-09T20:56:18.456Z,93.20
2024-03-09T20:58:48.478Z,93.20
2024-03-09T21:01:17.806Z,93.20
2024-03-09T21:03:47.243Z,93.20
2024-03-09T21:06:18.068Z,93.10
2024-03-09T21:08:47.407Z,93.20
2024-03-09T21:11:16.879Z,93.10
2024-03-09T21:13:46.193Z,93.10
2024-03-09T21:16:15.758Z,93.10
2024-03-09T21:18:45.544Z,93.00
2024-03-09T21:21:15.212Z,93.00
2024-03-09T21:23:46.548Z,93.00
2024-03-09T21:26:15.690Z,93.00
2024-03-09T21:28:45.420Z,93.00
2024-03-09T21:31:14.749Z,92.90
2024-03-09T21:33:44.039Z,92.90
2024-03-09T21:36:13.236Z,92.90
2024-03-09T21:38:45.052Z,92.90
2024-03-09T21:41:16.788Z,92.80
2024-03-09T21:43:47.929Z,92.80
2024-03-09T21:46:19.233Z,92.80
2024-03-09T21:48:49.825Z,92.80
2024-03-09T21:51:19.029Z,92.80
2024-03-09T21:53:49.015Z,92.80
2024-03-09T21:56:19.911Z,92.80
2024-03-09T21:58:49.347Z,92.90
2024-03-09T22:01:18.626Z,93.00
2024-03-09T22:03:51.199Z,93.00
2024-03-09T22:06:20.673Z,93.00
2024-03-09T22:08:50.580Z,93.00
2024-03-09T22:11:23.293Z,93.00
2024-03-09T22:13:54.254Z,93.00
2024-03-09T22:16:24.296Z,93.00
2024-03-09T22:18:54.569Z,93.00
2024-03-09T22:21:24.413Z,92.90
2024-03-09T22:23:54.266Z,92.90
2024-03-09T22:26:26.696Z,92.90
2024-03-09T22:28:56.905Z,92.90
2024-03-09T22:31:26.928Z,92.90
2024-03-09T22:33:56.358Z,92.90
2024-03-09T22:36:25.619Z,92.90
2024-03-09T22:38:54.942Z,92.90
2024-03-09T22:41:25.858Z,92.80
2024-03-09T22:43:55.773Z,92.80
2024-03-09T22:46:25.123Z,92.80
2024-03-09T22:48:54.382Z,92.80
2024-03-09T22:51:23.595Z,92.70
2024-03-09T22:53:52.932Z,92.70
2024-03-09T22:56:22.337Z,92.70
2024-03-09T22:58:53.441Z,92.60
2024-03-09T23:01:26.955Z,92.60
2024-03-09T23:03:57.720Z,92.60
2024-03-09T23:06:26.999Z,92.60
2024-03-09T23:08:56.791Z,92.60
2024-03-09T23:11:26.273Z,92.50
2024-03-09T23:13:59.776Z,92.50
2024-03-09T23:16:31.289Z,92.50
2024-03-09T23:19:01.220Z,92.50
2024-03-09T23:21:32.119Z,92.50
2024-03-09T23:24:01.440Z,92.50
2024-03-09T23:26:30.707Z,92.50
2024-03-09T23:29:01.517Z,92.50
2024-03-09T23:31:30.814Z,92.50
2024-03-09T23:34:00.049Z,92.50
2024-03-09T23:36:29.427Z,92.60
2024-03-09T23:38:59.133Z,92.60
2024-03-09T23:41:30.799Z,92.50
2024-03-09T23:44:01.639Z,92.50
2024-03-09T23:46:31.566Z,92.40
2024-03-09T23:49:01.385Z,92.40
2024-03-09T23:51:31.528Z,92.40
2024-03-09T23:54:00.871Z,92.40
2024-03-09T23:56:30.692Z,92.40
2024-03-09T23:59:01.846Z,92.40
